createdAt,value
2022-10-06T00:03:39.999Z,15.4
2022-10-06T00:08:40.007Z,15.4
2022-10-06T00:13:40.006Z,15.3
2022-10-06T00:18:40.002Z,15.3
2022-10-06T00:23:40.016Z,15.2
2022-10-06T00:28:40.171Z,15.1
2022-10-06T00:33:40.019Z,15.1
2022-10-06T00:38:40.019Z,15.0
2022-10-06T00:43:40.020Z,15.0
2022-10-06T00:48:40.026Z,14.9
2022-10-06T00:53:40.028Z,14.9
2022-10-06T00:58:40.029Z,14.8
2022-10-06T01:03:40.037Z,14.8
2022-10-06T01:08:40.027Z,14.7
2022-10-06T01:13:40.030Z,14.7
2022-10-06T01:18:40.040Z,14.7
2022-10-06T01:23:40.038Z,14.6
2022-10-06T01:28:40.142Z,14.6
2022-10-06T01:33:40.051Z,14.6
2022-10-06T01:38:40.044Z,14.6
2022-10-06T01:43:40.055Z,14.5
2022-10-06T01:48:40.052Z,14.5
2022-10-06T01:53:40.057Z,14.5
2022-10-06T01:58:40.062Z,14.5
2022-10-06T02:03:40.064Z,14.4
2022-10-06T02:08:40.058Z,14.4
2022-10-06T02:13:40.071Z,14.3
2022-10-06T02:18:40.068Z,14.3
2022-10-06T02:23:40.071Z,14.3
2022-10-06T02:28:40.185Z,14.2
2022-10-06T02:33:40.076Z,14.1
2022-10-06T02:38:40.084Z,14.1
2022-10-06T02:43:40.085Z,14.1
2022-10-06T02:48:40.080Z,14.0
2022-10-06T02:53:40.084Z,14.0
2022-10-06T02:58:40.090Z,14.0
2022-10-06T03:03:40.086Z,13.9
2022-10-06T03:08:40.095Z,13.9
2022-10-06T03:13:40.092Z,13.8
2022-10-06T03:18:40.093Z,13.8
2022-10-06T03:23:40.104Z,13.8
2022-10-06T03:28:40.213Z,13.7
2022-10-06T03:33:40.104Z,13.7
2022-10-06T03:38:40.119Z,13.7
2022-10-06T03:43:40.107Z,13.6
2022-10-06T03:48:40.111Z,13.5
2022-10-06T03:53:40.108Z,13.5
2022-10-06T03:58:40.118Z,13.4
2022-10-06T04:03:40.121Z,13.4
2022-10-06T04:08:40.128Z,13.3
2022-10-06T04:13:40.127Z,13.3
2022-10-06T04:18:40.131Z,13.2
2022-10-06T04:23:40.132Z,13.2
2022-10-06T04:28:40.198Z,13.1
2022-10-06T04:33:40.136Z,13.0
2022-10-06T04:38:40.135Z,13.0
2022-10-06T04:43:40.154Z,12.9
2022-10-06T04:48:40.136Z,12.9
2022-10-06T04:53:40.153Z,12.8
2022-10-06T04:58:40.154Z,12.8
2022-10-06T05:03:40.149Z,12.8
2022-10-06T05:08:40.152Z,12.8
2022-10-06T05:13:40.180Z,12.7
2022-10-06T05:18:40.145Z,12.6
2022-10-06T05:23:40.151Z,12.6
2022-10-06T05:28:40.224Z,12.6
2022-10-06T05:33:40.174Z,12.5
2022-10-06T05:38:40.164Z,12.5
2022-10-06T05:43:40.165Z,12.4
2022-10-06T05:48:40.173Z,12.4
2022-10-06T05:53:40.175Z,12.3
2022-10-06T05:58:40.174Z,12.3
2022-10-06T06:03:40.173Z,12.3
2022-10-06T06:08:40.174Z,12.3
2022-10-06T06:13:40.219Z,12.3
2022-10-06T06:18:40.189Z,12.3
2022-10-06T06:23:40.180Z,12.3
2022-10-06T06:28:40.327Z,12.3
2022-10-06T06:33:40.194Z,12.5
2022-10-06T06:38:40.213Z,13.5
2022-10-06T06:43:40.213Z,14.8
2022-10-06T06:48:40.224Z,15.9
2022-10-06T06:53:40.238Z,17.0
2022-10-06T06:58:40.259Z,17.9
2022-10-06T07:08:40.267Z,18.1
2022-10-06T07:13:40.263Z,17.7
2022-10-06T07:18:40.255Z,17.1
2022-10-06T07:23:40.256Z,16.5
2022-10-06T07:28:40.269Z,15.9
2022-10-06T07:33:40.250Z,15.5
2022-10-06T07:38:40.257Z,15.2
2022-10-06T07:43:40.249Z,14.9
2022-10-06T07:48:40.244Z,14.7
2022-10-06T07:53:40.262Z,14.5
2022-10-06T07:58:40.272Z,14.5
2022-10-06T08:03:40.256Z,14.5
2022-10-06T08:08:40.255Z,14.5
2022-10-06T08:13:40.262Z,14.5
2022-10-06T08:18:46.948Z,14.5
2022-10-06T08:23:40.264Z,14.6
2022-10-06T08:28:40.335Z,14.8
2022-10-06T08:33:40.284Z,14.9
2022-10-06T08:38:40.273Z,15.1
2022-10-06T08:43:40.283Z,15.2
2022-10-06T08:48:40.283Z,15.4
2022-10-06T08:53:40.279Z,15.5
2022-10-06T08:58:40.294Z,15.6
2022-10-06T09:03:40.310Z,15.8
2022-10-06T09:08:40.301Z,15.8
2022-10-06T09:13:40.297Z,15.9
2022-10-06T09:58:40.337Z,17.0
2022-10-06T10:03:44.560Z,17.1
2022-10-06T10:08:40.347Z,17.2
2022-10-06T10:13:40.350Z,17.3
2022-10-06T10:18:40.356Z,17.5
2022-10-06T10:23:40.359Z,17.7
2022-10-06T10:28:40.415Z,17.8
2022-10-06T10:33:46.088Z,17.9
2022-10-06T10:38:40.374Z,18.0
2022-10-06T10:43:40.375Z,18.1
2022-10-06T10:48:40.374Z,18.1
2022-10-06T10:53:42.638Z,18.1
2022-10-06T10:58:40.380Z,18.2
2022-10-06T11:03:40.397Z,18.2
2022-10-06T11:08:40.387Z,18.1
2022-10-06T11:13:40.386Z,18.2
2022-10-06T11:18:40.407Z,18.2
2022-10-06T11:23:40.445Z,18.2
2022-10-06T11:28:40.505Z,18.3
2022-10-06T11:33:40.395Z,18.4
2022-10-06T11:38:40.407Z,18.5
2022-10-06T11:43:40.416Z,18.7
2022-10-06T11:48:40.423Z,18.9
2022-10-06T11:53:40.423Z,19.0
2022-10-06T11:58:42.286Z,19.1
2022-10-06T12:03:40.431Z,19.2
2022-10-06T12:08:40.432Z,19.2
2022-10-06T12:14:26.553Z,19.3
2022-10-06T12:18:40.441Z,19.3
2022-10-06T12:23:40.441Z,19.3
2022-10-06T12:28:40.507Z,19.3
2022-10-06T12:33:40.451Z,19.3
2022-10-06T12:38:40.453Z,19.4
2022-10-06T12:43:40.456Z,19.5
2022-10-06T12:48:40.456Z,19.6
2022-10-06T12:53:40.455Z,19.5
2022-10-06T12:58:40.468Z,19.3
2022-10-06T13:03:40.457Z,19.4
2022-10-06T13:08:40.471Z,19.4
2022-10-06T13:13:40.481Z,19.5
2022-10-06T13:18:40.490Z,19.6
2022-10-06T13:23:40.476Z,19.7
2022-10-06T13:28:40.542Z,19.7
2022-10-06T13:33:40.488Z,19.7
2022-10-06T13:38:40.486Z,19.7
2022-10-06T13:43:40.491Z,19.7
2022-10-06T13:48:40.492Z,19.8
2022-10-06T13:53:40.499Z,19.8
2022-10-06T13:58:40.500Z,19.7
2022-10-06T14:03:40.505Z,19.7
2022-10-06T14:08:40.511Z,19.6
2022-10-06T14:13:40.524Z,19.6
2022-10-06T14:18:40.506Z,19.6
2022-10-06T14:23:40.508Z,19.7
2022-10-06T14:28:40.591Z,19.7
2022-10-06T14:33:40.515Z,19.7
2022-10-06T14:38:40.524Z,19.6
2022-10-06T14:43:40.530Z,19.6
2022-10-06T14:48:40.530Z,19.5
2022-10-06T14:53:40.531Z,19.5
2022-10-06T14:58:40.545Z,19.5
2022-10-06T15:03:42.624Z,19.5
2022-10-06T15:08:40.540Z,19.4
2022-10-06T15:13:40.545Z,19.4
2022-10-06T15:18:42.733Z,19.3
2022-10-06T15:23:40.544Z,19.2
2022-10-06T15:28:40.610Z,19.2
2022-10-06T15:33:40.547Z,19.1
2022-10-06T15:38:40.554Z,19.0
2022-10-06T15:43:40.557Z,18.9
2022-10-06T15:48:40.564Z,18.9
2022-10-06T15:53:40.556Z,18.8
2022-10-06T15:58:40.571Z,18.7
2022-10-06T16:03:41.299Z,18.5
2022-10-06T16:08:40.565Z,18.4
2022-10-06T16:13:40.573Z,18.3
2022-10-06T16:18:40.604Z,18.1
2022-10-06T16:23:40.569Z,18.0
2022-10-06T16:28:40.686Z,17.8
2022-10-06T16:33:40.569Z,17.7
2022-10-06T16:38:40.577Z,17.6
2022-10-06T16:43:40.577Z,17.4
2022-10-06T16:48:40.586Z,17.3
2022-10-06T16:53:40.578Z,17.2
2022-10-06T16:58:40.579Z,17.0
2022-10-06T17:03:40.616Z,16.8
2022-10-06T17:08:40.590Z,16.7
2022-10-06T17:13:40.589Z,16.5
2022-10-06T17:18:40.587Z,16.3
2022-10-06T17:23:40.590Z,16.1
2022-10-06T17:28:40.632Z,16.0
2022-10-06T17:33:40.597Z,15.8
2022-10-06T17:38:40.594Z,15.6
2022-10-06T17:43:40.603Z,15.4
2022-10-06T17:48:40.609Z,15.3
2022-10-06T17:53:40.598Z,15.1
2022-10-06T17:58:40.610Z,14.9
2022-10-06T18:03:40.608Z,14.7
2022-10-06T18:08:40.608Z,14.6
2022-10-06T18:13:40.610Z,14.4
2022-10-06T18:18:40.611Z,14.3
2022-10-06T18:23:40.611Z,14.1
2022-10-06T18:28:40.615Z,14.0
2022-10-06T18:38:40.625Z,13.8
2022-10-06T18:43:40.622Z,13.7
2022-10-06T18:48:40.623Z,13.7
2022-10-06T18:53:40.628Z,13.6
2022-10-06T18:58:40.640Z,13.4
2022-10-06T19:03:40.641Z,13.3
2022-10-06T19:08:40.627Z,13.2
2022-10-06T19:13:40.658Z,13.1
2022-10-06T19:18:40.635Z,13.0
2022-10-06T19:23:40.633Z,12.9
2022-10-06T19:28:40.692Z,12.8
2022-10-06T19:33:40.643Z,12.6
2022-10-06T19:38:40.639Z,12.5
2022-10-06T19:43:40.649Z,12.4
2022-10-06T19:48:40.644Z,12.3
2022-10-06T19:53:40.646Z,12.2
2022-10-06T19:58:40.654Z,12.1
2022-10-06T20:03:40.659Z,12.0
2022-10-06T20:08:40.672Z,12.0
2022-10-06T20:13:40.658Z,11.9
2022-10-06T20:18:40.668Z,11.9
2022-10-06T20:23:40.666Z,11.8
2022-10-06T20:28:40.751Z,11.7
2022-10-06T20:33:40.668Z,11.7
2022-10-06T20:38:40.670Z,11.7
2022-10-06T20:43:40.670Z,11.6
2022-10-06T20:48:40.675Z,11.6
2022-10-06T20:53:40.676Z,11.6
2022-10-06T20:58:40.681Z,11.6
2022-10-06T21:03:40.682Z,11.7
2022-10-06T21:08:40.687Z,11.7
2022-10-06T21:13:40.686Z,11.8
2022-10-06T21:18:40.690Z,11.8
2022-10-06T21:23:40.692Z,11.8
2022-10-06T21:28:40.774Z,11.9
2022-10-06T21:33:40.702Z,12.0
2022-10-06T21:38:40.698Z,12.0
2022-10-06T21:43:40.703Z,12.0
2022-10-06T21:48:40.711Z,12.0
2022-10-06T21:53:40.708Z,12.0
2022-10-06T21:58:40.721Z,12.0
2022-10-06T22:03:40.719Z,11.9
2022-10-06T22:08:40.715Z,11.8
2022-10-06T22:13:40.713Z,11.8
2022-10-06T22:18:40.718Z,11.6
2022-10-06T22:23:40.722Z,11.6
2022-10-06T22:28:40.765Z,11.5
2022-10-06T22:33:40.725Z,11.4
2022-10-06T22:38:40.730Z,11.3
2022-10-06T22:43:40.734Z,11.2
2022-10-06T22:48:40.733Z,11.2
2022-10-06T22:53:40.733Z,11.2
2022-10-06T22:58:40.731Z,11.2
2022-10-06T23:03:40.846Z,11.2
2022-10-06T23:08:40.740Z,11.2
2022-10-06T23:13:40.743Z,11.3
2022-10-06T23:18:40.744Z,11.3
2022-10-06T23:23:40.751Z,11.3
2022-10-06T23:28:40.868Z,11.3
2022-10-06T23:33:40.758Z,11.3
2022-10-06T23:38:40.758Z,11.4
2022-10-06T23:43:40.757Z,11.4
2022-10-06T23:48:40.769Z,11.4
2022-10-06T23:53:40.776Z,11.4
2022-10-06T23:58:40.768Z,11.4
